Time;durP1;ratioP1;P1;durP2;ratioP2;P2;SDS_P1;SDS_P2;PMS_P1;PMS_P2;Temp;Humidity;BMP_temperature;BMP_pressure;BME280_temperature;BME280_humidity;BME280_pressure;Samples;Min_cycle;Max_cycle;Signal;HPM_P1;HPM_P2
2022/10/16 00:01:23;;;;;;;92.17;85.25;;;;;;;14.09;74.35;100400.53;1747141;81;27447;-69
2022/10/16 00:03:51;;;;;;;27.95;16.75;;;;;;;14.10;74.27;100407.00;1747038;80;25575;-69
2022/10/16 00:06:20;;;;;;;25.45;15.08;;;;;;;14.09;74.27;100399.17;1747089;81;25470;-69
2022/10/16 00:08:48;;;;;;;26.02;15.85;;;;;;;14.10;74.25;100399.42;1747073;82;25603;-69
2022/10/16 00:11:29;;;;;;;26.77;16.67;;;;;;;14.08;74.16;100401.10;1724066;80;25640;-69
2022/10/16 00:13:59;;;;;;;25.97;16.77;;;;;;;14.09;74.20;100406.76;1731825;82;27563;-69
2022/10/16 00:16:28;;;;;;;29.80;16.70;;;;;;;14.09;74.17;100412.77;1746937;81;25358;-69
2022/10/16 00:18:54;;;;;;;27.45;17.10;;;;;;;14.08;74.16;100416.60;1747281;81;25393;-69
2022/10/16 00:21:24;;;;;;;30.05;17.70;;;;;;;14.07;74.25;100413.67;1747094;82;27662;-69
2022/10/16 00:23:59;;;;;;;31.90;16.90;;;;;;;14.05;74.09;100409.91;1726535;82;25668;-69
2022/10/16 00:26:28;;;;;;;30.23;17.37;;;;;;;14.04;74.23;100404.23;1708989;83;27534;-70
2022/10/16 00:28:54;;;;;;;27.62;16.60;;;;;;;14.03;74.26;100405.38;1696617;83;25451;-69
2022/10/16 00:31:22;;;;;;;33.85;17.85;;;;;;;14.02;74.16;100399.69;1696539;83;25555;-69
2022/10/16 00:33:50;;;;;;;30.92;17.82;;;;;;;14.01;74.27;100407.60;1714667;82;26085;-70
2022/10/16 00:36:20;;;;;;;29.02;17.27;;;;;;;13.99;74.29;100407.14;1714831;83;26702;-70
2022/10/16 00:38:47;;;;;;;31.80;17.90;;;;;;;13.99;74.28;100412.01;1694609;83;28267;-70
2022/10/16 00:41:17;;;;;;;32.93;17.95;;;;;;;13.98;74.22;100409.64;1722020;82;25579;-70
2022/10/16 00:43:46;;;;;;;;;;;;;;;13.97;74.27;100399.87;1708480;83;25572;-70
2022/10/16 00:46:30;;;;;;;27.70;17.27;;;;;;;13.97;74.36;100404.75;1694442;83;25561;-70
2022/10/16 00:49:13;;;;;;;34.35;18.45;;;;;;;13.96;74.38;100407.79;1713639;83;25413;-70
2022/10/16 00:51:47;;;;;;;33.70;18.15;;;;;;;13.94;74.58;100410.05;1712602;83;27431;-70
2022/10/16 00:54:20;;;;;;;31.12;18.95;;;;;;;13.90;74.56;100415.92;1693132;83;25576;-70
2022/10/16 00:56:47;;;;;;;30.65;17.82;;;;;;;13.90;74.72;100426.80;1694613;83;25580;-70
2022/10/16 00:59:24;;;;;;;35.55;19.70;;;;;;;13.88;74.93;100421.69;1714589;83;26011;-71
2022/10/16 01:01:52;;;;;;;32.53;19.42;;;;;;;13.85;74.91;100426.41;1712920;83;25778;-70
2022/10/16 01:04:19;;;;;;;36.93;19.05;;;;;;;13.85;75.01;100426.98;1697136;83;27548;-70
2022/10/16 01:07:12;;;;;;;30.90;18.15;;;;;;;13.84;75.05;100423.45;1724455;82;25921;-70
2022/10/16 01:09:49;;;;;;;30.08;17.85;;;;;;;13.83;75.25;100424.02;1726791;81;25692;-70
2022/10/16 01:12:23;;;;;;;27.95;16.73;;;;;;;13.83;75.25;100428.67;1703268;82;25571;-70
2022/10/16 01:15:01;;;;;;;31.75;18.00;;;;;;;13.81;75.41;100440.44;1709736;82;25571;-70
2022/10/16 01:17:36;;;;;;;32.63;17.27;;;;;;;13.81;75.60;100443.95;1704099;82;27608;-70
2022/10/16 01:20:27;;;;;;;29.10;17.80;;;;;;;13.80;75.77;100463.30;1707489;81;25625;-70
2022/10/16 01:23:31;;;;;;;33.33;18.70;;;;;;;13.77;75.97;100463.95;1714671;82;25619;-67
2022/10/16 01:26:27;;;;;;;30.88;17.52;;;;;;;13.74;76.19;100445.56;1711632;82;25491;-68
2022/10/16 01:29:28;;;;;;;30.27;17.75;;;;;;;13.66;76.39;100439.05;1712443;82;25602;-68
2022/10/16 01:32:02;;;;;;;31.45;18.02;;;;;;;13.60;76.60;100439.80;1703711;82;27656;-69
2022/10/16 01:34:39;;;;;;;37.70;20.05;;;;;;;13.55;76.97;100430.47;1695127;84;25637;-69
2022/10/16 01:37:13;;;;;;;32.98;18.70;;;;;;;13.50;77.10;100425.76;1723794;81;25504;-69
2022/10/16 01:39:42;;;;;;;32.28;17.27;;;;;;;13.47;77.40;100446.78;1723103;82;25541;-68
2022/10/16 01:42:17;;;;;;;33.20;18.85;;;;;;;13.44;77.67;100451.75;1723247;82;25559;-68
2022/10/16 01:44:45;;;;;;;29.63;18.90;;;;;;;13.41;78.01;100453.75;1713198;82;27385;-69
2022/10/16 01:47:14;;;;;;;30.93;19.00;;;;;;;13.38;78.30;100450.34;1714540;82;25473;-68
2022/10/16 01:49:43;;;;;;;29.45;18.02;;;;;;;13.35;78.16;100446.91;1727163;81;25829;-68
2022/10/16 01:52:20;;;;;;;35.45;19.40;;;;;;;13.34;78.61;100453.45;1715993;82;25531;-68
2022/10/16 01:54:50;;;;;;;36.60;20.05;;;;;;;13.31;78.69;100455.42;1727117;81;25500;-68
2022/10/16 01:57:18;;;;;;;31.48;19.27;;;;;;;13.29;79.12;100450.09;1733281;82;27461;-69
2022/10/16 01:59:49;;;;;;;34.15;19.70;;;;;;;13.26;79.12;100448.80;1706581;82;25636;-69
2022/10/16 02:02:18;;;;;;;37.13;20.75;;;;;;;13.23;79.14;100450.83;1703975;82;25446;-69
2022/10/16 02:04:49;;;;;;;41.50;21.35;;;;;;;13.20;79.07;100450.11;1726593;81;25635;-69
2022/10/16 02:07:16;;;;;;;37.63;21.35;;;;;;;13.17;79.67;100442.03;1710207;83;25470;-69
2022/10/16 02:09:43;;;;;;;30.27;19.67;;;;;;;13.15;79.42;100440.78;1696341;83;29623;-69
2022/10/16 02:12:30;;;;;;;37.53;22.07;;;;;;;13.12;79.71;100438.70;1696244;83;25576;-71
2022/10/16 02:14:57;;;;;;;36.88;21.20;;;;;;;13.10;79.83;100443.09;1696445;83;25429;-68
2022/10/16 02:17:25;;;;;;;38.78;21.75;;;;;;;13.06;79.97;100444.30;1685621;83;25438;-70
2022/10/16 02:19:55;;;;;;;33.90;22.05;;;;;;;13.05;79.96;100442.69;1702680;83;25474;-72
2022/10/16 02:22:36;;;;;;;37.48;21.93;;;;;;;13.05;80.17;100446.77;1708342;83;28029;-71
2022/10/16 02:25:10;;;;;;;39.78;22.25;;;;;;;13.03;80.29;100451.73;1722103;83;25690;-69
2022/10/16 02:28:00;;;;;;;35.25;22.93;;;;;;;13.03;80.42;100446.30;1696363;83;25480;-69
2022/10/16 02:30:32;;;;;;;;;;;;;;;13.02;80.41;100443.90;1699930;83;27766;-69
2022/10/16 02:33:03;;;;;;;35.55;21.75;;;;;;;13.00;80.53;100439.35;1724733;82;25450;-70
2022/10/16 02:35:30;;;;;;;38.17;24.20;;;;;;;12.98;80.67;100443.74;1724876;83;27533;-70
2022/10/16 02:37:58;;;;;;;37.20;23.45;;;;;;;12.95;80.60;100443.02;1705218;83;25409;-70
2022/10/16 02:40:26;;;;;;;40.05;23.90;;;;;;;12.96;80.74;100439.77;1724696;82;25476;-70
2022/10/16 02:42:54;;;;;;;36.15;23.35;;;;;;;12.95;80.72;100440.87;1673324;84;25491;-70
2022/10/16 02:45:21;;;;;;;35.80;22.02;;;;;;;12.93;80.85;100446.63;1712415;82;25638;-70
2022/10/16 02:47:48;;;;;;;34.00;22.67;;;;;;;12.92;80.92;100451.02;1699634;83;28256;-70
2022/10/16 02:50:14;;;;;;;37.75;23.87;;;;;;;12.90;80.99;100447.26;1696291;83;25420;-70
2022/10/16 02:52:40;;;;;;;35.98;23.95;;;;;;;12.89;80.94;100445.69;1716736;83;25623;-70
2022/10/16 02:55:08;;;;;;;34.92;22.52;;;;;;;12.88;81.08;100444.86;1707838;83;25429;-69
2022/10/16 02:57:36;;;;;;;35.60;23.15;;;;;;;12.88;81.05;100443.50;1704807;83;25752;-69
2022/10/16 03:00:06;;;;;;;36.33;20.97;;;;;;;12.87;81.17;100446.54;1681481;83;27342;-69
2022/10/16 03:02:32;;;;;;;33.58;21.12;;;;;;;12.84;81.14;100445.28;1705368;83;25665;-69
2022/10/16 03:04:58;;;;;;;31.12;20.32;;;;;;;12.82;81.55;100439.38;1699586;82;25659;-70
2022/10/16 03:07:25;;;;;;;36.10;21.68;;;;;;;12.81;81.67;100446.48;1722822;81;26226;-70
2022/10/16 03:09:51;;;;;;;30.57;19.23;;;;;;;12.80;81.67;100456.52;1711011;82;25747;-70
2022/10/16 03:12:17;;;;;;;33.80;21.70;;;;;;;12.79;81.55;100458.22;1707140;82;27470;-70
2022/10/16 03:14:43;;;;;;;34.80;22.55;;;;;;;12.79;81.56;100459.58;1727703;82;32844;-70
2022/10/16 03:17:09;;;;;;;33.90;22.37;;;;;;;12.79;81.85;100463.66;1707178;82;25632;-69
2022/10/16 03:19:36;;;;;;;33.13;22.67;;;;;;;12.79;81.77;100467.72;1707209;82;25567;-69
2022/10/16 03:22:02;;;;;;;38.75;23.10;;;;;;;12.78;81.70;100474.25;1714484;81;30514;-69
2022/10/16 03:24:28;;;;;;;36.98;23.15;;;;;;;12.78;81.82;100476.97;1719361;82;28171;-69
2022/10/16 03:26:54;;;;;;;36.73;24.05;;;;;;;12.79;81.76;100473.94;1707045;81;25511;-69
2022/10/16 03:29:20;;;;;;;39.00;25.23;;;;;;;12.78;81.84;100479.12;1727925;82;25596;-69
2022/10/16 03:31:48;;;;;;;33.92;19.52;;;;;;;12.79;81.75;100480.73;1707136;82;25560;-69
2022/10/16 03:34:14;;;;;;;31.50;20.52;;;;;;;12.82;81.73;100486.06;1727862;82;25491;-69
2022/10/16 03:36:40;;;;;;;36.08;21.30;;;;;;;12.83;81.77;100489.03;1721197;81;27621;-69
2022/10/16 03:39:07;;;;;;;37.93;21.23;;;;;;;12.83;81.82;100490.38;1712540;82;27359;-69
2022/10/16 03:41:33;;;;;;;32.25;21.42;;;;;;;12.82;81.66;100495.02;1718496;81;25670;-69
2022/10/16 03:43:59;;;;;;;36.17;25.05;;;;;;;12.83;81.65;100498.53;1715313;82;28953;-69
2022/10/16 03:46:25;;;;;;;37.80;25.15;;;;;;;12.83;81.57;100491.73;1715927;82;25566;-69
2022/10/16 03:48:51;;;;;;;36.00;24.05;;;;;;;12.85;81.75;100494.92;1717319;82;27478;-69
2022/10/16 03:51:17;;;;;;;38.15;24.92;;;;;;;12.84;81.50;100490.63;1713675;82;32740;-69
2022/10/16 03:53:44;;;;;;;44.03;39.48;;;;;;;12.85;81.47;100490.29;1736556;82;25674;-69
2022/10/16 03:56:10;;;;;;;81.22;74.42;;;;;;;12.85;81.52;100487.58;1711939;82;25646;-69
2022/10/16 03:58:36;;;;;;;90.53;82.95;;;;;;;12.86;81.50;100492.47;1707118;82;25567;-69
2022/10/16 04:01:03;;;;;;;33.48;20.10;;;;;;;12.86;81.39;100495.97;1708219;82;27545;-69
2022/10/16 04:03:29;;;;;;;30.55;20.17;;;;;;;12.85;81.30;100499.79;1726290;82;25760;-69
2022/10/16 04:05:56;;;;;;;31.07;19.32;;;;;;;12.85;81.33;100500.36;1705254;82;25635;-69
2022/10/16 04:08:23;;;;;;;30.27;19.95;;;;;;;12.84;81.22;100492.78;1695411;84;26225;-69
2022/10/16 04:10:49;;;;;;;32.23;18.77;;;;;;;12.85;81.29;100497.64;1703845;82;25411;-69
2022/10/16 04:13:16;;;;;;;31.42;19.80;;;;;;;12.84;81.26;100497.42;1708668;82;27608;-69
2022/10/16 04:15:42;;;;;;;31.77;19.73;;;;;;;12.85;81.26;100503.07;1719130;81;25563;-69
2022/10/16 04:18:08;;;;;;;36.53;25.57;;;;;;;12.86;81.16;100504.68;1703835;82;25393;-69
2022/10/16 04:20:34;;;;;;;33.60;24.70;;;;;;;12.87;81.17;100506.27;1703734;82;25468;-69
2022/10/16 04:23:01;;;;;;;37.20;32.98;;;;;;;12.86;81.07;100489.75;1703853;82;32759;-69
2022/10/16 04:25:27;;;;;;;87.30;80.03;;;;;;;12.86;81.05;100494.61;1706350;81;27502;-69
2022/10/16 04:27:54;;;;;;;88.95;81.90;;;;;;;12.86;81.03;100495.97;1733077;81;25731;-69
2022/10/16 04:30:22;;;;;;;59.03;53.38;;;;;;;12.86;81.02;100492.47;1733012;81;25407;-69
2022/10/16 04:32:51;;;;;;;36.20;29.63;;;;;;;12.86;80.87;100496.53;1703768;82;25646;-69
2022/10/16 04:35:20;;;;;;;95.55;88.05;;;;;;;12.82;80.90;100488.23;1703692;82;25599;-69
2022/10/16 04:37:47;;;;;;;96.78;89.03;;;;;;;12.82;80.97;100497.73;1703436;82;28139;-68
2022/10/16 04:40:14;;;;;;;96.78;88.67;;;;;;;12.79;80.84;100499.73;1733088;81;25562;-68
2022/10/16 04:42:40;;;;;;;95.65;87.90;;;;;;;12.78;80.68;100503.55;1707328;82;25476;-68
2022/10/16 04:45:08;;;;;;;96.17;88.50;;;;;;;12.75;80.59;100511.53;1717912;81;25489;-68
2022/10/16 04:47:34;;;;;;;95.15;87.55;;;;;;;12.73;80.67;100509.70;1730417;81;25565;-68
2022/10/16 04:50:02;;;;;;;96.28;88.67;;;;;;;12.68;80.62;100502.50;1715481;81;28258;-69
2022/10/16 04:52:28;;;;;;;94.20;86.80;;;;;;;12.66;80.68;100504.17;1712356;81;25782;-69
2022/10/16 04:54:56;;;;;;;96.92;89.37;;;;;;;12.63;80.70;100508.91;1733087;82;25609;-68
2022/10/16 04:57:22;;;;;;;95.10;87.50;;;;;;;12.61;80.70;100514.39;1714669;82;25582;-68
2022/10/16 04:59:48;;;;;;;96.63;88.55;;;;;;;12.56;80.67;100516.69;1673495;84;25664;-69
2022/10/16 05:02:14;;;;;;;95.80;88.27;;;;;;;12.55;80.93;100513.75;1690451;82;27468;-69
2022/10/16 05:04:41;;;;;;;94.77;87.53;;;;;;;12.52;80.98;100522.52;1733011;81;27440;-69
2022/10/16 05:07:07;;;;;;;94.22;86.90;;;;;;;12.50;81.08;100522.04;1688071;84;25701;-69
2022/10/16 05:09:33;;;;;;;94.35;86.85;;;;;;;12.49;81.17;100526.65;1696211;83;35006;-69
2022/10/16 05:11:59;;;;;;;96.05;88.42;;;;;;;12.44;81.28;100523.30;1706320;83;25505;-69
2022/10/16 05:14:25;;;;;;;93.05;85.55;;;;;;;12.43;81.34;100525.75;1706468;83;27568;-69
2022/10/16 05:16:51;;;;;;;94.80;87.50;;;;;;;12.43;81.46;100523.04;1696162;83;25909;-68
2022/10/16 05:19:18;;;;;;;94.60;86.55;;;;;;;12.42;81.54;100533.67;1696281;83;25517;-68
2022/10/16 05:21:44;;;;;;;97.35;89.30;;;;;;;12.41;81.68;100522.56;1696191;83;25880;-69
2022/10/16 05:24:10;;;;;;;94.70;86.75;;;;;;;12.44;81.70;100531.43;1685386;83;32803;-69
2022/10/16 05:26:36;;;;;;;95.70;87.90;;;;;;;12.44;81.73;100534.14;1719475;83;27431;-68
2022/10/16 05:29:02;;;;;;;92.75;85.38;;;;;;;12.44;81.83;100535.50;1720438;83;25467;-68
2022/10/16 05:31:29;;;;;;;94.32;86.95;;;;;;;12.45;81.92;100539.26;1696279;83;25640;-69
2022/10/16 05:34:02;;;;;;;95.12;87.60;;;;;;;12.47;81.85;100545.16;1696291;83;25545;-69
2022/10/16 05:36:29;;;;;;;93.62;86.22;;;;;;;12.49;81.95;100552.98;1708854;83;25518;-69
2022/10/16 05:38:55;;;;;;;93.20;85.95;;;;;;;12.50;82.03;100555.39;1704058;83;27472;-69
2022/10/16 05:41:23;;;;;;;95.53;87.95;;;;;;;12.54;82.02;100565.05;1696343;83;25452;-69
2022/10/16 05:43:49;;;;;;;31.27;17.42;;;;;;;12.57;82.05;100563.63;1696348;83;25465;-70
2022/10/16 05:46:16;;;;;;;34.48;16.57;;;;;;;12.62;82.02;100568.91;1723489;82;25660;-70
2022/10/16 05:48:43;;;;;;;28.42;17.20;;;;;;;12.65;82.02;100566.91;1709058;83;25470;-69
2022/10/16 05:51:13;;;;;;;46.05;41.18;;;;;;;12.67;81.95;100557.91;1696397;83;27472;-69
2022/10/16 05:53:40;;;;;;;95.65;88.03;;;;;;;12.74;81.82;100558.80;1710805;82;32761;-70
2022/10/16 05:56:10;;;;;;;94.28;87.10;;;;;;;12.74;81.82;100558.80;1680715;82;25487;-70
2022/10/16 05:58:40;;;;;;;96.97;89.35;;;;;;;12.74;81.59;100560.16;1712870;83;26328;-70
2022/10/16 06:01:13;;;;;;;95.53;88.12;;;;;;;12.74;81.58;100552.02;1696445;83;25457;-70
2022/10/16 06:03:40;;;;;;;92.97;85.80;;;;;;;12.73;81.39;100556.63;1696428;83;27493;-70
2022/10/16 06:06:19;;;;;;;95.28;87.97;;;;;;;12.75;81.37;100554.95;1699992;82;25695;-69
2022/10/16 06:08:47;;;;;;;94.87;87.15;;;;;;;12.73;81.30;100565.34;1707374;82;25666;-69
2022/10/16 06:11:17;;;;;;;91.45;84.58;;;;;;;12.72;81.33;100576.76;1726961;81;25707;-70
2022/10/16 06:13:45;;;;;;;90.70;83.85;;;;;;;12.71;81.31;100575.15;1706997;82;25675;-71
2022/10/16 06:16:13;;;;;;;93.65;86.35;;;;;;;12.71;81.40;100579.22;1727167;82;29702;-69
2022/10/16 06:18:39;;;;;;;95.03;87.80;;;;;;;12.71;81.33;100585.44;1707391;82;25399;-70
2022/10/16 06:21:12;;;;;;;93.70;86.45;;;;;;;12.74;81.39;100592.16;1723467;82;25446;-70
2022/10/16 06:23:38;;;;;;;91.55;84.37;;;;;;;12.77;81.49;100588.00;1683409;84;26135;-70
2022/10/16 06:26:11;;;;;;;92.12;85.15;;;;;;;12.82;81.54;100588.67;1707251;81;25460;-69
2022/10/16 06:28:38;;;;;;;94.72;86.95;;;;;;;12.92;81.51;100582.69;1726751;81;28957;-70
2022/10/16 06:31:07;;;;;;;93.97;86.85;;;;;;;13.03;81.70;100592.13;1733856;82;25570;-70
2022/10/16 06:33:33;;;;;;;92.05;84.80;;;;;;;13.20;81.87;100595.42;1724962;82;25839;-70
2022/10/16 06:36:07;;;;;;;93.92;86.90;;;;;;;13.39;81.53;100589.69;1722135;81;25693;-70
2022/10/16 06:38:35;;;;;;;92.95;85.57;;;;;;;13.54;81.67;100589.77;1758701;81;25569;-70
2022/10/16 06:41:02;;;;;;;30.23;17.00;;;;;;;13.76;81.20;100587.42;1750758;80;28046;-70
2022/10/16 06:43:32;;;;;;;25.05;15.55;;;;;;;13.99;80.51;100597.50;1749209;81;25670;-71
2022/10/16 06:46:01;;;;;;;24.40;15.63;;;;;;;14.18;80.20;100597.94;1721573;81;25722;-70
2022/10/16 06:48:30;;;;;;;20.70;14.50;;;;;;;14.40;78.89;100611.03;1753796;80;26131;-70
2022/10/16 06:51:09;;;;;;;24.37;14.33;;;;;;;14.60;79.02;100606.03;1752134;81;25566;-70
2022/10/16 06:53:39;;;;;;;26.07;16.48;;;;;;;14.87;79.30;100607.47;1755108;81;27499;-71
2022/10/16 06:56:22;;;;;;;25.52;14.65;;;;;;;15.19;78.37;100610.59;1753493;81;25455;-71
2022/10/16 06:58:50;;;;;;;25.15;15.50;;;;;;;15.34;76.81;100607.84;1756933;81;25392;-71
2022/10/16 07:01:19;;;;;;;24.18;14.85;;;;;;;15.35;75.71;100606.73;1746373;81;25742;-70
2022/10/16 07:03:47;;;;;;;28.05;17.32;;;;;;;15.47;75.46;100606.77;1740795;81;25631;-71
2022/10/16 07:06:22;;;;;;;24.32;15.05;;;;;;;15.67;75.35;100615.48;1741379;81;27479;-71
2022/10/16 07:08:49;;;;;;;19.05;13.10;;;;;;;15.82;73.98;100617.40;1716443;83;25586;-70
2022/10/16 07:11:20;;;;;;;21.75;15.63;;;;;;;15.91;73.02;100619.45;1710152;82;25743;-70
2022/10/16 07:13:48;;;;;;;91.70;85.07;;;;;;;16.01;72.99;100622.33;1713655;83;25659;-70
2022/10/16 07:16:18;;;;;;;20.43;15.08;;;;;;;16.17;73.11;100623.25;1714661;83;25686;-69
2022/10/16 07:18:48;;;;;;;22.50;15.10;;;;;;;16.35;72.79;100623.86;1714429;83;28217;-69
2022/10/16 07:21:20;;;;;;;;;;;;;;;16.51;71.88;100642.30;1691130;83;25476;-70
2022/10/16 07:23:52;;;;;;;22.73;14.55;;;;;;;16.39;71.10;100649.33;1708104;83;25543;-69
2022/10/16 07:26:19;;;;;;;22.52;14.87;;;;;;;16.25;70.54;100652.38;1721802;83;25571;-70
2022/10/16 07:28:45;;;;;;;22.50;15.58;;;;;;;16.15;70.76;100653.39;1751105;81;25627;-70
2022/10/16 07:31:14;;;;;;;22.58;15.65;;;;;;;16.02;70.52;100653.38;1745551;81;28065;-70
2022/10/16 07:33:44;;;;;;;24.63;14.78;;;;;;;15.91;70.86;100654.13;1740089;81;25446;-70
2022/10/16 07:36:12;;;;;;;22.55;16.15;;;;;;;15.80;70.95;100658.64;1730117;81;25290;-69
2022/10/16 07:38:39;;;;;;;22.70;16.10;;;;;;;15.71;71.08;100653.00;1710636;81;26533;-72
2022/10/16 07:41:09;;;;;;;24.67;15.88;;;;;;;15.65;71.22;100641.52;1746252;81;25624;-69
2022/10/16 07:43:37;;;;;;;;;;;;;;;15.59;71.48;100647.72;1740914;81;27369;-70
2022/10/16 07:46:04;;;;;;;22.42;15.05;;;;;;;15.59;71.48;100633.30;1751479;81;25390;-67
2022/10/16 07:48:35;;;;;;;23.00;16.23;;;;;;;15.53;71.30;100634.07;1751871;81;25594;-67
2022/10/16 07:51:06;;;;;;;23.02;16.60;;;;;;;15.49;71.77;100635.86;1727351;81;25770;-67
2022/10/16 07:53:33;;;;;;;22.55;15.38;;;;;;;15.53;72.14;100629.16;1726221;82;25646;-68
2022/10/16 07:56:05;;;;;;;26.82;15.60;;;;;;;15.60;72.12;100631.59;1723917;82;27469;-68
2022/10/16 07:58:36;;;;;;;23.57;15.65;;;;;;;15.66;72.20;100631.63;1724499;82;25720;-67
2022/10/16 08:01:10;;;;;;;23.18;16.25;;;;;;;15.84;72.15;100637.73;1725064;82;25762;-66
2022/10/16 08:03:37;;;;;;;23.20;15.25;;;;;;;16.11;73.10;100619.17;1722849;82;27689;-67
2022/10/16 08:06:05;;;;;;;22.73;14.28;;;;;;;16.67;73.65;100611.81;1723515;81;25766;-67
2022/10/16 08:08:31;;;;;;;21.50;15.18;;;;;;;17.22;72.64;100611.53;1737886;81;27637;-67
2022/10/16 08:10:59;;;;;;;21.20;14.63;;;;;;;17.63;71.65;100613.07;1741256;81;25715;-66
2022/10/16 08:13:26;;;;;;;18.85;13.85;;;;;;;17.94;70.32;100613.52;1738916;80;26443;-68
2022/10/16 08:15:54;;;;;;;20.57;14.00;;;;;;;18.25;69.75;100612.74;1743043;80;25566;-68
2022/10/16 08:18:20;;;;;;;19.73;14.10;;;;;;;18.55;67.63;100615.04;1754496;80;25761;-69
2022/10/16 08:20:46;;;;;;;19.80;14.50;;;;;;;18.57;66.04;100633.27;1772763;80;28171;-69
2022/10/16 08:23:13;;;;;;;21.45;13.93;;;;;;;18.45;65.55;100627.32;1770156;80;25712;-69
2022/10/16 08:25:41;;;;;;;19.57;13.65;;;;;;;18.45;66.20;100622.63;1770975;80;25732;-68
2022/10/16 08:28:10;;;;;;;15.63;12.63;;;;;;;18.67;66.23;100624.52;1774082;80;25665;-68
2022/10/16 08:30:36;;;;;;;16.67;12.65;;;;;;;18.87;65.19;100632.25;1777615;80;25713;-71
2022/10/16 08:33:04;;;;;;;19.02;13.55;;;;;;;18.88;64.36;100639.89;1773095;79;27508;-69
2022/10/16 08:35:31;;;;;;;23.20;12.80;;;;;;;18.80;63.97;100647.92;1767041;79;25717;-70
2022/10/16 08:37:59;;;;;;;20.70;14.10;;;;;;;18.65;63.55;100643.27;1745119;80;25781;-68
2022/10/16 08:40:34;;;;;;;20.82;14.58;;;;;;;18.53;64.26;100643.36;1773554;80;25685;-70
2022/10/16 08:43:27;;;;;;;16.00;13.43;;;;;;;18.53;64.18;100673.49;1772469;80;25572;-67
2022/10/16 08:46:04;;;;;;;20.40;13.38;;;;;;;18.51;64.46;100660.70;1772403;79;27499;-69
2022/10/16 08:48:50;;;;;;;20.20;13.22;;;;;;;18.48;64.33;100655.38;1769629;80;25831;-68
2022/10/16 08:51:25;;;;;;;17.00;13.48;;;;;;;18.44;64.24;100653.92;1777532;80;25692;-69
2022/10/16 08:53:58;;;;;;;17.45;13.32;;;;;;;18.46;64.69;100653.57;1774377;80;25795;-67
2022/10/16 08:56:26;;;;;;;18.37;13.85;;;;;;;18.45;64.29;100653.34;1767516;80;25848;-66
2022/10/16 08:58:54;;;;;;;19.32;13.68;;;;;;;18.34;64.24;100664.03;1776344;80;27588;-67
2022/10/16 09:01:23;;;;;;;16.10;12.20;;;;;;;18.27;63.97;100661.91;1771685;80;25655;-68
2022/10/16 09:04:10;;;;;;;;;;;;;;;18.24;64.73;100663.97;1759103;80;25673;-67
2022/10/16 09:06:46;;;;;;;18.45;12.80;;;;;;;18.34;65.30;100671.43;1775769;80;26175;-67
2022/10/16 09:09:37;;;;;;;18.20;12.75;;;;;;;18.41;64.69;100664.79;1774410;80;25698;-70
2022/10/16 09:12:11;;;;;;;20.10;12.93;;;;;;;18.48;64.50;100669.85;1718772;82;27572;-67
2022/10/16 09:15:15;;;;;;;17.17;12.37;;;;;;;18.65;64.41;100677.50;1713709;82;25877;-68
2022/10/16 09:18:19;;;;;;;19.00;12.90;;;;;;;18.92;64.54;100665.45;1715577;82;25760;-68
2022/10/16 09:20:50;;;;;;;16.75;12.95;;;;;;;19.20;62.21;100687.99;1719309;82;27643;-68
2022/10/16 09:23:30;;;;;;;17.90;11.97;;;;;;;19.38;62.77;100675.27;1729728;82;25666;-68
2022/10/16 09:25:58;;;;;;;18.70;12.95;;;;;;;19.45;63.03;100676.78;1720779;82;27653;-65
2022/10/16 09:28:25;;;;;;;19.37;11.70;;;;;;;19.54;63.04;100675.98;1687981;83;25746;-67
2022/10/16 09:30:52;;;;;;;18.00;11.85;;;;;;;19.92;62.62;100674.42;1714727;82;25678;-66
2022/10/16 09:33:22;;;;;;;16.82;12.15;;;;;;;20.38;62.93;100659.12;1704297;82;25724;-68
2022/10/16 09:35:53;;;;;;;17.57;11.95;;;;;;;20.75;61.31;100657.98;1704879;82;25470;-67
2022/10/16 09:38:33;;;;;;;18.07;11.80;;;;;;;20.99;60.12;100655.39;1689386;82;27493;-68
2022/10/16 09:41:04;;;;;;;20.57;11.68;;;;;;;21.17;60.25;100649.36;1713550;83;25537;-68
2022/10/16 09:43:44;;;;;;;16.60;11.68;;;;;;;21.48;58.88;100650.95;1712384;83;25861;-67
2022/10/16 09:46:33;;;;;;;16.27;11.20;;;;;;;21.44;57.57;100659.14;1709191;82;25692;-66
2022/10/16 09:49:01;;;;;;;;;;;;;;;21.34;58.86;100655.67;1769209;79;25787;-67
2022/10/16 09:51:35;;;;;;;14.37;10.90;;;;;;;21.61;58.80;100655.05;1785317;80;27559;-67
2022/10/16 09:54:09;;;;;;;14.83;11.40;;;;;;;21.77;58.91;100654.05;1785040;80;25695;-65
2022/10/16 09:56:41;;;;;;;17.80;11.10;;;;;;;21.80;57.43;100655.45;1757812;80;25751;-66
2022/10/16 09:59:17;;;;;;;14.23;11.85;;;;;;;21.55;55.76;100655.76;1785053;80;25808;-68
2022/10/16 10:01:49;;;;;;;16.57;12.03;;;;;;;;;;1785262;80;25704;-66
2022/10/16 10:04:17;;;;;;;17.75;10.85;;;;;;;21.00;56.85;100658.36;1786315;80;29717;-67
2022/10/16 10:06:51;;;;;;;16.12;11.45;;;;;;;20.75;57.12;100664.86;1786199;80;25487;-67
2022/10/16 10:09:38;;;;;;;18.10;12.07;;;;;;;20.74;57.65;100670.16;1784387;80;25662;-66
2022/10/16 10:12:08;;;;;;;16.50;11.48;;;;;;;20.71;57.85;100664.02;1784316;80;25582;-68
2022/10/16 10:14:45;;;;;;;14.95;11.45;;;;;;;20.97;58.35;100648.69;1758624;80;25406;-67
2022/10/16 10:17:19;;;;;;;18.73;11.65;;;;;;;21.36;58.84;100649.80;1784369;80;29650;-71
2022/10/16 10:19:53;;;;;;;14.60;11.12;;;;;;;21.78;58.86;100644.63;1775441;80;25690;-70
2022/10/16 10:22:30;;;;;;;17.12;10.72;;;;;;;22.22;57.66;100664.55;1687404;83;25458;-72
2022/10/16 10:25:02;;;;;;;13.43;10.75;;;;;;;22.25;56.40;100673.41;1682396;84;25754;-69
2022/10/16 10:27:39;;;;;;;16.32;10.15;;;;;;;22.06;56.04;100655.72;1717572;83;25655;-68
2022/10/16 10:30:19;;;;;;;16.05;10.70;;;;;;;21.91;55.85;100661.06;1716231;83;27509;-67
2022/10/16 10:32:54;;;;;;;16.40;10.35;;;;;;;21.76;56.49;100657.39;1709507;83;25794;-68
2022/10/16 10:35:25;;;;;;;15.65;10.60;;;;;;;21.63;56.07;100659.59;1699186;83;25693;-68
2022/10/16 10:38:12;;;;;;;15.95;9.68;;;;;;;21.39;55.93;100654.56;1705443;83;25748;-69
2022/10/16 10:40:47;;;;;;;13.90;11.38;;;;;;;21.13;56.20;100645.20;1702393;83;25585;-68
2022/10/16 10:43:25;;;;;;;15.50;10.70;;;;;;;20.90;56.67;100632.29;1636464;86;28225;-70
2022/10/16 10:45:55;;;;;;;17.70;10.80;;;;;;;20.88;57.48;100634.63;1627298;88;25684;-69
2022/10/16 10:48:57;;;;;;;14.23;10.13;;;;;;;20.83;57.60;100633.56;1634763;87;25469;-69
2022/10/16 10:51:59;;;;;;;16.27;10.53;;;;;;;20.78;57.95;100632.52;1629236;87;25802;-66
2022/10/16 10:54:43;;;;;;;17.85;11.30;;;;;;;20.72;58.36;100627.11;1628171;88;25677;-67
2022/10/16 10:57:21;;;;;;;15.18;10.85;;;;;;;20.70;58.29;100636.31;1633732;87;26953;-71
2022/10/16 10:59:51;;;;;;;16.62;10.75;;;;;;;20.59;58.10;100637.50;1657081;84;25589;-68
2022/10/16 11:02:43;;;;;;;14.93;10.40;;;;;;;20.45;58.38;100639.45;1664759;85;25685;-71
2022/10/16 11:05:32;;;;;;;15.45;10.35;;;;;;;20.39;58.84;100637.37;1690387;83;26032;-72
2022/10/16 11:11:02;;;;;;;15.18;10.82;;;;;;;20.40;59.97;100638.38;1697751;84;26601;-71
2022/10/16 11:13:45;;;;;;;17.17;10.35;;;;;;;20.58;60.17;100634.53;1697208;83;25738;-69
2022/10/16 11:35:34;;;;;;;14.53;9.75;;;;;;;21.12;58.74;100638.69;1876352;76;25630;-69
2022/10/16 11:38:06;;;;;;;13.72;9.85;;;;;;;20.94;58.37;100635.67;1837058;77;25347;-68
2022/10/16 11:40:37;;;;;;;15.98;10.68;;;;;;;20.82;58.46;100641.63;1848012;77;27459;-68
2022/10/16 11:43:21;;;;;;;14.73;9.75;;;;;;;20.73;58.69;100634.20;1823840;77;25413;-69
2022/10/16 11:45:55;;;;;;;17.48;10.03;;;;;;;20.64;58.57;100634.47;1835733;77;25716;-66
2022/10/16 11:48:45;;;;;;;14.78;10.25;;;;;;;20.51;58.83;100637.95;1779150;80;25649;-66
2022/10/16 11:51:29;;;;;;;16.27;9.73;;;;;;;20.43;59.11;100637.66;1714865;83;25520;-68
2022/10/16 11:54:21;;;;;;;14.55;9.70;;;;;;;20.46;60.20;100638.86;1713075;83;27508;-66